sensor_id;sensor_type;location;lat;lon;timestamp;P1;durP1;ratioP1;P2;durP2;ratioP2
5585;SDS011;2815;54.094;12.112;2023-09-19T00:02:16;1.92;;;1.30;;
5585;SDS011;2815;54.094;12.112;2023-09-19T00:04:44;3.92;;;1.77;;
5585;SDS011;2815;54.094;12.112;2023-09-19T00:07:12;3.67;;;1.40;;
5585;SDS011;2815;54.094;12.112;2023-09-19T00:09:42;1.95;;;1.20;;
5585;SDS011;2815;54.094;12.112;2023-09-19T00:12:10;3.92;;;1.38;;
5585;SDS011;2815;54.094;12.112;2023-09-19T00:14:40;2.40;;;1.20;;
5585;SDS011;2815;54.094;12.112;2023-09-19T00:17:08;3.63;;;1.20;;
5585;SDS011;2815;54.094;12.112;2023-09-19T00:19:37;2.78;;;1.20;;
5585;SDS011;2815;54.094;12.112;2023-09-19T00:22:05;1.05;;;0.70;;
5585;SDS011;2815;54.094;12.112;2023-09-19T00:24:33;3.00;;;0.95;;
5585;SDS011;2815;54.094;12.112;2023-09-19T00:27:02;2.20;;;1.00;;
5585;SDS011;2815;54.094;12.112;2023-09-19T00:29:30;3.85;;;0.90;;
5585;SDS011;2815;54.094;12.112;2023-09-19T00:31:59;1.63;;;0.80;;
5585;SDS011;2815;54.094;12.112;2023-09-19T00:34:27;3.13;;;0.90;;
5585;SDS011;2815;54.094;12.112;2023-09-19T00:36:57;2.55;;;0.85;;
5585;SDS011;2815;54.094;12.112;2023-09-19T00:39:26;2.53;;;0.80;;
5585;SDS011;2815;54.094;12.112;2023-09-19T00:44:31;2.17;;;1.00;;
5585;SDS011;2815;54.094;12.112;2023-09-19T00:47:01;2.80;;;1.05;;
5585;SDS011;2815;54.094;12.112;2023-09-19T00:49:29;1.52;;;0.70;;
5585;SDS011;2815;54.094;12.112;2023-09-19T00:52:00;6.78;;;1.40;;
5585;SDS011;2815;54.094;12.112;2023-09-19T00:54:31;4.72;;;0.95;;
5585;SDS011;2815;54.094;12.112;2023-09-19T00:57:00;2.45;;;0.85;;
5585;SDS011;2815;54.094;12.112;2023-09-19T00:59:28;4.32;;;0.93;;
5585;SDS011;2815;54.094;12.112;2023-09-19T01:01:56;1.85;;;0.80;;
5585;SDS011;2815;54.094;12.112;2023-09-19T01:04:27;4.47;;;1.17;;
5585;SDS011;2815;54.094;12.112;2023-09-19T01:06:56;2.00;;;0.90;;
5585;SDS011;2815;54.094;12.112;2023-09-19T01:09:26;5.40;;;1.00;;
5585;SDS011;2815;54.094;12.112;2023-09-19T01:11:57;2.97;;;0.90;;
5585;SDS011;2815;54.094;12.112;2023-09-19T01:14:28;2.53;;;0.90;;
5585;SDS011;2815;54.094;12.112;2023-09-19T01:17:00;3.30;;;0.75;;
5585;SDS011;2815;54.094;12.112;2023-09-19T01:19:51;2.88;;;0.98;;
5585;SDS011;2815;54.094;12.112;2023-09-19T01:22:46;2.33;;;0.80;;
5585;SDS011;2815;54.094;12.112;2023-09-19T01:25:32;2.88;;;0.85;;
5585;SDS011;2815;54.094;12.112;2023-09-19T01:28:30;3.90;;;1.20;;
5585;SDS011;2815;54.094;12.112;2023-09-19T01:31:06;3.75;;;0.90;;
5585;SDS011;2815;54.094;12.112;2023-09-19T01:33:56;1.77;;;0.85;;
5585;SDS011;2815;54.094;12.112;2023-09-19T01:36:27;2.50;;;1.25;;
5585;SDS011;2815;54.094;12.112;2023-09-19T01:38:57;2.53;;;1.10;;
5585;SDS011;2815;54.094;12.112;2023-09-19T01:41:30;2.83;;;1.00;;
5585;SDS011;2815;54.094;12.112;2023-09-19T01:44:03;4.85;;;0.77;;
5585;SDS011;2815;54.094;12.112;2023-09-19T01:46:35;3.42;;;0.98;;
5585;SDS011;2815;54.094;12.112;2023-09-19T01:49:11;5.30;;;1.33;;
5585;SDS011;2815;54.094;12.112;2023-09-19T01:51:55;2.85;;;0.98;;
5585;SDS011;2815;54.094;12.112;2023-09-19T01:54:27;2.33;;;0.98;;
5585;SDS011;2815;54.094;12.112;2023-09-19T01:56:59;1.88;;;1.02;;
5585;SDS011;2815;54.094;12.112;2023-09-19T01:59:34;6.65;;;1.20;;
5585;SDS011;2815;54.094;12.112;2023-09-19T02:02:05;4.22;;;1.10;;
5585;SDS011;2815;54.094;12.112;2023-09-19T02:04:35;3.97;;;1.00;;
5585;SDS011;2815;54.094;12.112;2023-09-19T02:07:03;3.40;;;1.30;;
5585;SDS011;2815;54.094;12.112;2023-09-19T02:09:34;4.55;;;1.17;;
5585;SDS011;2815;54.094;12.112;2023-09-19T02:12:05;2.10;;;1.08;;
5585;SDS011;2815;54.094;12.112;2023-09-19T02:14:33;3.65;;;1.10;;
5585;SDS011;2815;54.094;12.112;2023-09-19T02:17:02;3.10;;;1.30;;
5585;SDS011;2815;54.094;12.112;2023-09-19T02:19:33;2.35;;;1.00;;
5585;SDS011;2815;54.094;12.112;2023-09-19T02:22:01;3.97;;;1.05;;
5585;SDS011;2815;54.094;12.112;2023-09-19T02:24:34;3.97;;;1.10;;
5585;SDS011;2815;54.094;12.112;2023-09-19T02:27:04;2.97;;;1.50;;
5585;SDS011;2815;54.094;12.112;2023-09-19T02:29:32;5.82;;;1.13;;
5585;SDS011;2815;54.094;12.112;2023-09-19T02:32:02;2.72;;;1.13;;
5585;SDS011;2815;54.094;12.112;2023-09-19T02:34:31;5.75;;;1.30;;
5585;SDS011;2815;54.094;12.112;2023-09-19T02:37:00;2.55;;;1.10;;
5585;SDS011;2815;54.094;12.112;2023-09-19T02:39:31;4.45;;;1.20;;
5585;SDS011;2815;54.094;12.112;2023-09-19T02:41:59;1.90;;;1.27;;
5585;SDS011;2815;54.094;12.112;2023-09-19T02:44:27;4.30;;;1.08;;
5585;SDS011;2815;54.094;12.112;2023-09-19T02:46:55;2.95;;;1.17;;
5585;SDS011;2815;54.094;12.112;2023-09-19T02:49:24;2.97;;;1.10;;
5585;SDS011;2815;54.094;12.112;2023-09-19T02:51:52;5.30;;;1.38;;
5585;SDS011;2815;54.094;12.112;2023-09-19T02:54:21;4.30;;;1.35;;
5585;SDS011;2815;54.094;12.112;2023-09-19T02:56:50;3.65;;;1.17;;
5585;SDS011;2815;54.094;12.112;2023-09-19T02:59:18;4.47;;;1.17;;
5585;SDS011;2815;54.094;12.112;2023-09-19T03:01:46;2.50;;;1.00;;
5585;SDS011;2815;54.094;12.112;2023-09-19T03:04:14;2.60;;;1.30;;
5585;SDS011;2815;54.094;12.112;2023-09-19T03:06:47;5.15;;;1.40;;
5585;SDS011;2815;54.094;12.112;2023-09-19T03:09:17;1.67;;;1.30;;
5585;SDS011;2815;54.094;12.112;2023-09-19T03:11:47;3.15;;;1.40;;
5585;SDS011;2815;54.094;12.112;2023-09-19T03:14:16;3.10;;;1.50;;
5585;SDS011;2815;54.094;12.112;2023-09-19T03:16:48;3.33;;;1.35;;
5585;SDS011;2815;54.094;12.112;2023-09-19T03:19:16;2.20;;;1.20;;
5585;SDS011;2815;54.094;12.112;2023-09-19T03:21:44;5.35;;;1.50;;
5585;SDS011;2815;54.094;12.112;2023-09-19T03:24:19;3.22;;;1.30;;
5585;SDS011;2815;54.094;12.112;2023-09-19T03:26:49;2.88;;;1.45;;
5585;SDS011;2815;54.094;12.112;2023-09-19T03:29:17;3.65;;;1.65;;
5585;SDS011;2815;54.094;12.112;2023-09-19T03:31:45;4.03;;;1.60;;
5585;SDS011;2815;54.094;12.112;2023-09-19T03:34:14;3.58;;;1.60;;
5585;SDS011;2815;54.094;12.112;2023-09-19T03:36:43;4.57;;;1.70;;
5585;SDS011;2815;54.094;12.112;2023-09-19T03:39:11;6.90;;;1.70;;
5585;SDS011;2815;54.094;12.112;2023-09-19T03:41:42;5.10;;;1.65;;
5585;SDS011;2815;54.094;12.112;2023-09-19T03:44:12;5.63;;;1.60;;
5585;SDS011;2815;54.094;12.112;2023-09-19T03:46:41;2.15;;;1.42;;
5585;SDS011;2815;54.094;12.112;2023-09-19T03:49:09;5.18;;;1.52;;
5585;SDS011;2815;54.094;12.112;2023-09-19T03:51:37;7.68;;;2.22;;
5585;SDS011;2815;54.094;12.112;2023-09-19T03:54:08;4.88;;;1.70;;
5585;SDS011;2815;54.094;12.112;2023-09-19T03:56:36;3.85;;;1.70;;
5585;SDS011;2815;54.094;12.112;2023-09-19T03:59:04;3.90;;;1.70;;
5585;SDS011;2815;54.094;12.112;2023-09-19T04:01:33;3.47;;;1.70;;
5585;SDS011;2815;54.094;12.112;2023-09-19T04:04:02;2.80;;;1.48;;
5585;SDS011;2815;54.094;12.112;2023-09-19T04:06:35;6.43;;;1.70;;
5585;SDS011;2815;54.094;12.112;2023-09-19T04:09:03;4.15;;;1.85;;
5585;SDS011;2815;54.094;12.112;2023-09-19T04:11:34;2.65;;;1.60;;
5585;SDS011;2815;54.094;12.112;2023-09-19T04:14:03;4.80;;;1.92;;
5585;SDS011;2815;54.094;12.112;2023-09-19T04:16:31;3.78;;;1.80;;
5585;SDS011;2815;54.094;12.112;2023-09-19T04:19:01;2.78;;;1.73;;
5585;SDS011;2815;54.094;12.112;2023-09-19T04:21:30;3.78;;;1.67;;
5585;SDS011;2815;54.094;12.112;2023-09-19T04:23:58;4.38;;;2.00;;
5585;SDS011;2815;54.094;12.112;2023-09-19T04:26:26;3.65;;;1.55;;
5585;SDS011;2815;54.094;12.112;2023-09-19T04:28:54;3.33;;;1.73;;
5585;SDS011;2815;54.094;12.112;2023-09-19T04:31:22;3.35;;;1.58;;
5585;SDS011;2815;54.094;12.112;2023-09-19T04:33:51;5.65;;;1.90;;
5585;SDS011;2815;54.094;12.112;2023-09-19T04:36:21;2.53;;;1.60;;
5585;SDS011;2815;54.094;12.112;2023-09-19T04:39:01;4.03;;;1.80;;
5585;SDS011;2815;54.094;12.112;2023-09-19T04:41:31;4.22;;;2.00;;
5585;SDS011;2815;54.094;12.112;2023-09-19T04:43:59;3.22;;;1.90;;
5585;SDS011;2815;54.094;12.112;2023-09-19T04:46:27;3.15;;;1.65;;
5585;SDS011;2815;54.094;12.112;2023-09-19T04:48:55;3.60;;;1.92;;
5585;SDS011;2815;54.094;12.112;2023-09-19T04:51:25;6.50;;;2.20;;
5585;SDS011;2815;54.094;12.112;2023-09-19T04:53:55;5.00;;;1.73;;
5585;SDS011;2815;54.094;12.112;2023-09-19T04:56:24;2.65;;;1.70;;
5585;SDS011;2815;54.094;12.112;2023-09-19T04:58:52;5.47;;;2.30;;
5585;SDS011;2815;54.094;12.112;2023-09-19T05:01:20;6.05;;;1.77;;
5585;SDS011;2815;54.094;12.112;2023-09-19T05:03:49;4.38;;;2.08;;
5585;SDS011;2815;54.094;12.112;2023-09-19T05:06:19;3.80;;;1.90;;
5585;SDS011;2815;54.094;12.112;2023-09-19T05:08:49;6.25;;;2.15;;
5585;SDS011;2815;54.094;12.112;2023-09-19T05:11:18;6.35;;;1.88;;
5585;SDS011;2815;54.094;12.112;2023-09-19T05:13:47;4.20;;;2.15;;
5585;SDS011;2815;54.094;12.112;2023-09-19T05:16:16;7.68;;;2.25;;
5585;SDS011;2815;54.094;12.112;2023-09-19T05:18:44;4.53;;;2.25;;
5585;SDS011;2815;54.094;12.112;2023-09-19T05:21:12;4.13;;;2.15;;
5585;SDS011;2815;54.094;12.112;2023-09-19T05:23:40;5.60;;;1.88;;
5585;SDS011;2815;54.094;12.112;2023-09-19T05:29:28;4.47;;;1.92;;
5585;SDS011;2815;54.094;12.112;2023-09-19T05:31:56;6.35;;;1.90;;
5585;SDS011;2815;54.094;12.112;2023-09-19T05:34:24;4.35;;;2.05;;
5585;SDS011;2815;54.094;12.112;2023-09-19T05:36:54;3.17;;;2.00;;
5585;SDS011;2815;54.094;12.112;2023-09-19T05:39:22;3.30;;;1.98;;
5585;SDS011;2815;54.094;12.112;2023-09-19T05:41:50;7.18;;;2.25;;
5585;SDS011;2815;54.094;12.112;2023-09-19T05:44:18;6.13;;;1.95;;
5585;SDS011;2815;54.094;12.112;2023-09-19T05:46:47;5.47;;;2.08;;
5585;SDS011;2815;54.094;12.112;2023-09-19T05:49:16;3.95;;;1.70;;
5585;SDS011;2815;54.094;12.112;2023-09-19T05:51:44;3.05;;;1.90;;
5585;SDS011;2815;54.094;12.112;2023-09-19T05:54:13;5.53;;;2.08;;
5585;SDS011;2815;54.094;12.112;2023-09-19T05:56:42;5.10;;;1.73;;
5585;SDS011;2815;54.094;12.112;2023-09-19T05:59:13;7.18;;;1.90;;
5585;SDS011;2815;54.094;12.112;2023-09-19T06:01:42;5.03;;;1.98;;
5585;SDS011;2815;54.094;12.112;2023-09-19T06:04:11;5.45;;;1.80;;
5585;SDS011;2815;54.094;12.112;2023-09-19T06:06:39;5.00;;;1.92;;
5585;SDS011;2815;54.094;12.112;2023-09-19T06:09:07;5.75;;;1.70;;
5585;SDS011;2815;54.094;12.112;2023-09-19T06:11:35;7.07;;;1.77;;
5585;SDS011;2815;54.094;12.112;2023-09-19T06:14:04;3.90;;;1.70;;
5585;SDS011;2815;54.094;12.112;2023-09-19T06:16:32;3.88;;;1.70;;
5585;SDS011;2815;54.094;12.112;2023-09-19T06:19:00;4.93;;;1.70;;
5585;SDS011;2815;54.094;12.112;2023-09-19T06:21:29;4.30;;;1.85;;
5585;SDS011;2815;54.094;12.112;2023-09-19T06:23:59;8.43;;;1.63;;
5585;SDS011;2815;54.094;12.112;2023-09-19T06:26:27;10.20;;;2.33;;
5585;SDS011;2815;54.094;12.112;2023-09-19T06:28:56;3.53;;;1.80;;
5585;SDS011;2815;54.094;12.112;2023-09-19T06:31:24;4.78;;;1.65;;
5585;SDS011;2815;54.094;12.112;2023-09-19T06:33:53;3.25;;;1.30;;
5585;SDS011;2815;54.094;12.112;2023-09-19T06:36:21;5.13;;;1.75;;
5585;SDS011;2815;54.094;12.112;2023-09-19T06:38:50;5.63;;;1.73;;
5585;SDS011;2815;54.094;12.112;2023-09-19T06:41:19;4.70;;;1.50;;
5585;SDS011;2815;54.094;12.112;2023-09-19T06:46:20;4.05;;;1.35;;
5585;SDS011;2815;54.094;12.112;2023-09-19T06:48:48;3.17;;;1.25;;
5585;SDS011;2815;54.094;12.112;2023-09-19T06:51:18;7.70;;;1.38;;
5585;SDS011;2815;54.094;12.112;2023-09-19T06:53:46;5.88;;;1.40;;
5585;SDS011;2815;54.094;12.112;2023-09-19T06:56:16;5.63;;;1.30;;
5585;SDS011;2815;54.094;12.112;2023-09-19T06:58:43;4.20;;;1.25;;
5585;SDS011;2815;54.094;12.112;2023-09-19T07:01:11;3.70;;;1.23;;
5585;SDS011;2815;54.094;12.112;2023-09-19T07:03:42;7.20;;;1.50;;
5585;SDS011;2815;54.094;12.112;2023-09-19T07:06:12;4.50;;;1.00;;
5585;SDS011;2815;54.094;12.112;2023-09-19T07:08:40;3.17;;;1.00;;
5585;SDS011;2815;54.094;12.112;2023-09-19T07:11:08;3.42;;;1.05;;
5585;SDS011;2815;54.094;12.112;2023-09-19T07:13:37;7.95;;;1.30;;
5585;SDS011;2815;54.094;12.112;2023-09-19T07:16:06;6.03;;;1.40;;
5585;SDS011;2815;54.094;12.112;2023-09-19T07:18:37;4.13;;;0.90;;
5585;SDS011;2815;54.094;12.112;2023-09-19T07:21:04;3.67;;;1.23;;
5585;SDS011;2815;54.094;12.112;2023-09-19T07:23:33;5.57;;;1.55;;
5585;SDS011;2815;54.094;12.112;2023-09-19T07:26:01;6.65;;;1.38;;
5585;SDS011;2815;54.094;12.112;2023-09-19T07:28:32;2.65;;;0.90;;
5585;SDS011;2815;54.094;12.112;2023-09-19T07:31:03;6.72;;;1.30;;
5585;SDS011;2815;54.094;12.112;2023-09-19T07:33:31;11.48;;;1.52;;
5585;SDS011;2815;54.094;12.112;2023-09-19T07:35:59;6.03;;;1.40;;
5585;SDS011;2815;54.094;12.112;2023-09-19T07:38:29;3.50;;;0.90;;
5585;SDS011;2815;54.094;12.112;2023-09-19T07:40:59;8.52;;;1.10;;
5585;SDS011;2815;54.094;12.112;2023-09-19T07:43:29;8.10;;;1.00;;
5585;SDS011;2815;54.094;12.112;2023-09-19T07:45:57;5.45;;;1.05;;
5585;SDS011;2815;54.094;12.112;2023-09-19T07:48:28;2.40;;;0.85;;
5585;SDS011;2815;54.094;12.112;2023-09-19T07:51:01;5.55;;;0.90;;
5585;SDS011;2815;54.094;12.112;2023-09-19T07:53:29;5.60;;;1.10;;
5585;SDS011;2815;54.094;12.112;2023-09-19T07:56:04;3.63;;;0.95;;
5585;SDS011;2815;54.094;12.112;2023-09-19T07:58:33;9.38;;;2.20;;
5585;SDS011;2815;54.094;12.112;2023-09-19T08:01:02;6.47;;;0.90;;
5585;SDS011;2815;54.094;12.112;2023-09-19T08:03:32;6.85;;;1.20;;
5585;SDS011;2815;54.094;12.112;2023-09-19T08:06:02;13.38;;;1.85;;
5585;SDS011;2815;54.094;12.112;2023-09-19T08:08:31;7.35;;;1.20;;
5585;SDS011;2815;54.094;12.112;2023-09-19T08:10:58;5.80;;;1.05;;
5585;SDS011;2815;54.094;12.112;2023-09-19T08:13:28;5.03;;;1.08;;
5585;SDS011;2815;54.094;12.112;2023-09-19T08:15:57;4.18;;;1.00;;
5585;SDS011;2815;54.094;12.112;2023-09-19T08:18:25;9.13;;;1.27;;
5585;SDS011;2815;54.094;12.112;2023-09-19T08:20:58;4.20;;;1.42;;
5585;SDS011;2815;54.094;12.112;2023-09-19T08:23:27;6.65;;;1.58;;
5585;SDS011;2815;54.094;12.112;2023-09-19T08:25:56;9.93;;;1.30;;
5585;SDS011;2815;54.094;12.112;2023-09-19T08:28:24;9.23;;;1.35;;
5585;SDS011;2815;54.094;12.112;2023-09-19T08:30:52;9.13;;;1.20;;
5585;SDS011;2815;54.094;12.112;2023-09-19T08:33:21;5.07;;;1.02;;
5585;SDS011;2815;54.094;12.112;2023-09-19T08:35:49;4.32;;;1.10;;
5585;SDS011;2815;54.094;12.112;2023-09-19T08:38:18;5.30;;;1.17;;
5585;SDS011;2815;54.094;12.112;2023-09-19T08:40:46;8.15;;;1.15;;
5585;SDS011;2815;54.094;12.112;2023-09-19T08:43:15;7.18;;;1.65;;
5585;SDS011;2815;54.094;12.112;2023-09-19T08:45:43;6.25;;;1.50;;
5585;SDS011;2815;54.094;12.112;2023-09-19T08:48:20;5.43;;;1.27;;
5585;SDS011;2815;54.094;12.112;2023-09-19T08:50:53;5.22;;;1.13;;
5585;SDS011;2815;54.094;12.112;2023-09-19T08:53:31;4.30;;;1.10;;
5585;SDS011;2815;54.094;12.112;2023-09-19T08:56:05;5.70;;;1.33;;
5585;SDS011;2815;54.094;12.112;2023-09-19T08:58:39;6.03;;;1.25;;
5585;SDS011;2815;54.094;12.112;2023-09-19T09:01:15;6.45;;;1.20;;
5585;SDS011;2815;54.094;12.112;2023-09-19T09:03:43;6.35;;;1.30;;
5585;SDS011;2815;54.094;12.112;2023-09-19T09:06:15;2.90;;;1.00;;
5585;SDS011;2815;54.094;12.112;2023-09-19T09:08:46;5.65;;;1.40;;
5585;SDS011;2815;54.094;12.112;2023-09-19T09:11:14;8.48;;;1.30;;
5585;SDS011;2815;54.094;12.112;2023-09-19T09:13:43;7.00;;;1.40;;
5585;SDS011;2815;54.094;12.112;2023-09-19T09:16:12;1.85;;;0.80;;
5585;SDS011;2815;54.094;12.112;2023-09-19T09:18:44;8.75;;;1.30;;
5585;SDS011;2815;54.094;12.112;2023-09-19T09:21:12;4.22;;;1.25;;
5585;SDS011;2815;54.094;12.112;2023-09-19T09:23:41;7.07;;;1.45;;
5585;SDS011;2815;54.094;12.112;2023-09-19T09:26:10;6.65;;;1.38;;
5585;SDS011;2815;54.094;12.112;2023-09-19T09:28:44;8.18;;;1.15;;
5585;SDS011;2815;54.094;12.112;2023-09-19T09:31:21;4.97;;;1.77;;
5585;SDS011;2815;54.094;12.112;2023-09-19T09:33:52;8.57;;;1.83;;
5585;SDS011;2815;54.094;12.112;2023-09-19T09:36:33;8.93;;;1.33;;
5585;SDS011;2815;54.094;12.112;2023-09-19T09:39:03;6.72;;;1.35;;
5585;SDS011;2815;54.094;12.112;2023-09-19T09:41:44;5.70;;;1.20;;
5585;SDS011;2815;54.094;12.112;2023-09-19T09:44:13;5.95;;;1.63;;
5585;SDS011;2815;54.094;12.112;2023-09-19T09:46:44;5.55;;;1.20;;
5585;SDS011;2815;54.094;12.112;2023-09-19T09:49:29;8.70;;;1.35;;
5585;SDS011;2815;54.094;12.112;2023-09-19T09:52:01;6.88;;;1.30;;
5585;SDS011;2815;54.094;12.112;2023-09-19T09:54:37;7.13;;;2.05;;
5585;SDS011;2815;54.094;12.112;2023-09-19T09:57:10;6.20;;;1.27;;
5585;SDS011;2815;54.094;12.112;2023-09-19T09:59:44;5.82;;;1.27;;
5585;SDS011;2815;54.094;12.112;2023-09-19T10:04:51;6.68;;;1.25;;
5585;SDS011;2815;54.094;12.112;2023-09-19T10:07:26;4.60;;;1.15;;
5585;SDS011;2815;54.094;12.112;2023-09-19T10:09:59;5.57;;;1.38;;
5585;SDS011;2815;54.094;12.112;2023-09-19T10:12:40;6.65;;;1.40;;
5585;SDS011;2815;54.094;12.112;2023-09-19T10:15:10;9.27;;;1.70;;
5585;SDS011;2815;54.094;12.112;2023-09-19T10:17:43;3.75;;;0.98;;
5585;SDS011;2815;54.094;12.112;2023-09-19T10:20:13;2.80;;;1.10;;
5585;SDS011;2815;54.094;12.112;2023-09-19T10:23:00;8.88;;;1.67;;
5585;SDS011;2815;54.094;12.112;2023-09-19T10:25:30;10.45;;;1.45;;
5585;SDS011;2815;54.094;12.112;2023-09-19T10:28:00;3.72;;;1.20;;
5585;SDS011;2815;54.094;12.112;2023-09-19T10:30:30;2.75;;;0.98;;
5585;SDS011;2815;54.094;12.112;2023-09-19T10:33:00;5.50;;;1.25;;
5585;SDS011;2815;54.094;12.112;2023-09-19T10:35:29;7.25;;;1.40;;
5585;SDS011;2815;54.094;12.112;2023-09-19T10:37:59;3.53;;;1.20;;
5585;SDS011;2815;54.094;12.112;2023-09-19T10:40:29;8.85;;;1.27;;
5585;SDS011;2815;54.094;12.112;2023-09-19T10:43:01;5.63;;;1.08;;
5585;SDS011;2815;54.094;12.112;2023-09-19T10:45:32;8.07;;;1.27;;
5585;SDS011;2815;54.094;12.112;2023-09-19T10:48:01;6.70;;;1.30;;
5585;SDS011;2815;54.094;12.112;2023-09-19T10:50:32;8.15;;;1.50;;
5585;SDS011;2815;54.094;12.112;2023-09-19T10:53:04;7.82;;;1.42;;
5585;SDS011;2815;54.094;12.112;2023-09-19T10:55:35;7.80;;;1.20;;
5585;SDS011;2815;54.094;12.112;2023-09-19T10:58:05;7.63;;;1.40;;
5585;SDS011;2815;54.094;12.112;2023-09-19T11:00:53;7.05;;;1.25;;
5585;SDS011;2815;54.094;12.112;2023-09-19T11:03:22;3.65;;;1.25;;
5585;SDS011;2815;54.094;12.112;2023-09-19T11:06:01;7.03;;;1.40;;
5585;SDS011;2815;54.094;12.112;2023-09-19T11:08:52;7.78;;;1.42;;
5585;SDS011;2815;54.094;12.112;2023-09-19T11:11:39;7.18;;;1.13;;
5585;SDS011;2815;54.094;12.112;2023-09-19T11:14:28;8.52;;;1.33;;
5585;SDS011;2815;54.094;12.112;2023-09-19T11:20:17;5.82;;;1.55;;
5585;SDS011;2815;54.094;12.112;2023-09-19T11:25:51;1.92;;;0.90;;
5585;SDS011;2815;54.094;12.112;2023-09-19T11:28:29;4.63;;;1.23;;
5585;SDS011;2815;54.094;12.112;2023-09-19T11:30:59;5.30;;;1.48;;
5585;SDS011;2815;54.094;12.112;2023-09-19T11:41:03;6.18;;;1.42;;
5585;SDS011;2815;54.094;12.112;2023-09-19T11:47:02;3.80;;;1.20;;
5585;SDS011;2815;54.094;12.112;2023-09-19T11:49:32;3.20;;;1.10;;
5585;SDS011;2815;54.094;12.112;2023-09-19T11:52:01;5.30;;;1.38;;
5585;SDS011;2815;54.094;12.112;2023-09-19T11:54:32;5.28;;;1.73;;
5585;SDS011;2815;54.094;12.112;2023-09-19T11:56:59;3.33;;;1.02;;
5585;SDS011;2815;54.094;12.112;2023-09-19T11:59:29;5.68;;;1.25;;
5585;SDS011;2815;54.094;12.112;2023-09-19T12:02:00;7.32;;;1.20;;
5585;SDS011;2815;54.094;12.112;2023-09-19T12:07:06;4.65;;;0.90;;
5585;SDS011;2815;54.094;12.112;2023-09-19T12:09:42;5.65;;;1.17;;
5585;SDS011;2815;54.094;12.112;2023-09-19T12:12:19;4.88;;;1.10;;
5585;SDS011;2815;54.094;12.112;2023-09-19T12:14:47;7.97;;;1.30;;
5585;SDS011;2815;54.094;12.112;2023-09-19T12:17:16;5.10;;;1.15;;
5585;SDS011;2815;54.094;12.112;2023-09-19T12:19:49;4.93;;;1.50;;
5585;SDS011;2815;54.094;12.112;2023-09-19T12:22:18;6.90;;;1.60;;
5585;SDS011;2815;54.094;12.112;2023-09-19T12:24:47;7.28;;;1.48;;
5585;SDS011;2815;54.094;12.112;2023-09-19T12:27:17;4.70;;;1.15;;
5585;SDS011;2815;54.094;12.112;2023-09-19T12:29:46;3.85;;;1.13;;
5585;SDS011;2815;54.094;12.112;2023-09-19T12:32:17;4.50;;;1.17;;
5585;SDS011;2815;54.094;12.112;2023-09-19T12:34:55;3.45;;;1.02;;
5585;SDS011;2815;54.094;12.112;2023-09-19T12:37:23;6.15;;;1.27;;
5585;SDS011;2815;54.094;12.112;2023-09-19T12:42:41;6.55;;;1.02;;
5585;SDS011;2815;54.094;12.112;2023-09-19T12:45:11;6.95;;;1.40;;
5585;SDS011;2815;54.094;12.112;2023-09-19T12:51:01;4.55;;;1.20;;
5585;SDS011;2815;54.094;12.112;2023-09-19T12:53:33;7.03;;;1.55;;
5585;SDS011;2815;54.094;12.112;2023-09-19T12:56:05;4.75;;;1.25;;
5585;SDS011;2815;54.094;12.112;2023-09-19T12:58:35;6.30;;;1.48;;
5585;SDS011;2815;54.094;12.112;2023-09-19T13:01:16;6.07;;;1.33;;
5585;SDS011;2815;54.094;12.112;2023-09-19T13:03:44;5.70;;;1.40;;
5585;SDS011;2815;54.094;12.112;2023-09-19T13:06:14;4.32;;;1.10;;
5585;SDS011;2815;54.094;12.112;2023-09-19T13:08:43;4.00;;;1.20;;
5585;SDS011;2815;54.094;12.112;2023-09-19T13:11:19;4.15;;;1.20;;
5585;SDS011;2815;54.094;12.112;2023-09-19T13:13:49;6.70;;;1.27;;
5585;SDS011;2815;54.094;12.112;2023-09-19T13:16:21;5.00;;;1.27;;
5585;SDS011;2815;54.094;12.112;2023-09-19T13:18:51;4.70;;;1.27;;
5585;SDS011;2815;54.094;12.112;2023-09-19T13:21:29;5.97;;;1.27;;
5585;SDS011;2815;54.094;12.112;2023-09-19T13:24:19;4.38;;;1.08;;
5585;SDS011;2815;54.094;12.112;2023-09-19T13:26:49;5.88;;;1.00;;
5585;SDS011;2815;54.094;12.112;2023-09-19T13:29:17;3.88;;;1.00;;
5585;SDS011;2815;54.094;12.112;2023-09-19T13:31:46;7.35;;;1.52;;
5585;SDS011;2815;54.094;12.112;2023-09-19T13:34:14;5.18;;;1.20;;
5585;SDS011;2815;54.094;12.112;2023-09-19T13:36:45;7.03;;;1.60;;
5585;SDS011;2815;54.094;12.112;2023-09-19T13:39:15;4.22;;;1.10;;
5585;SDS011;2815;54.094;12.112;2023-09-19T13:41:43;8.50;;;1.75;;
5585;SDS011;2815;54.094;12.112;2023-09-19T13:44:13;10.05;;;1.63;;
5585;SDS011;2815;54.094;12.112;2023-09-19T13:46:43;10.98;;;1.02;;
5585;SDS011;2815;54.094;12.112;2023-09-19T13:49:13;8.40;;;1.48;;
5585;SDS011;2815;54.094;12.112;2023-09-19T13:51:41;6.88;;;1.50;;
5585;SDS011;2815;54.094;12.112;2023-09-19T13:54:12;5.13;;;1.25;;
5585;SDS011;2815;54.094;12.112;2023-09-19T13:56:41;6.85;;;1.30;;
5585;SDS011;2815;54.094;12.112;2023-09-19T13:59:08;7.15;;;1.60;;
5585;SDS011;2815;54.094;12.112;2023-09-19T14:01:37;4.25;;;1.20;;
5585;SDS011;2815;54.094;12.112;2023-09-19T14:04:06;6.45;;;1.27;;
5585;SDS011;2815;54.094;12.112;2023-09-19T14:06:34;4.20;;;1.20;;
5585;SDS011;2815;54.094;12.112;2023-09-19T14:09:04;5.00;;;1.20;;
5585;SDS011;2815;54.094;12.112;2023-09-19T14:11:33;12.95;;;1.30;;
5585;SDS011;2815;54.094;12.112;2023-09-19T14:14:01;6.93;;;1.25;;
5585;SDS011;2815;54.094;12.112;2023-09-19T14:16:31;4.20;;;1.30;;
5585;SDS011;2815;54.094;12.112;2023-09-19T14:19:00;6.88;;;1.27;;
5585;SDS011;2815;54.094;12.112;2023-09-19T14:21:28;6.95;;;1.30;;
5585;SDS011;2815;54.094;12.112;2023-09-19T14:23:56;5.05;;;1.17;;
5585;SDS011;2815;54.094;12.112;2023-09-19T14:26:24;6.05;;;1.30;;
5585;SDS011;2815;54.094;12.112;2023-09-19T14:28:53;2.63;;;1.08;;
5585;SDS011;2815;54.094;12.112;2023-09-19T14:31:21;2.15;;;1.08;;
5585;SDS011;2815;54.094;12.112;2023-09-19T14:33:53;6.70;;;2.05;;
5585;SDS011;2815;54.094;12.112;2023-09-19T14:38:55;3.72;;;1.08;;
5585;SDS011;2815;54.094;12.112;2023-09-19T14:41:23;6.70;;;1.35;;
5585;SDS011;2815;54.094;12.112;2023-09-19T14:43:53;7.05;;;1.30;;
5585;SDS011;2815;54.094;12.112;2023-09-19T14:46:22;3.83;;;1.38;;
5585;SDS011;2815;54.094;12.112;2023-09-19T14:48:51;5.22;;;1.10;;
5585;SDS011;2815;54.094;12.112;2023-09-19T14:51:19;10.15;;;2.03;;
5585;SDS011;2815;54.094;12.112;2023-09-19T14:53:47;5.50;;;1.40;;
5585;SDS011;2815;54.094;12.112;2023-09-19T14:56:15;3.85;;;1.50;;
5585;SDS011;2815;54.094;12.112;2023-09-19T14:58:46;3.33;;;1.20;;
5585;SDS011;2815;54.094;12.112;2023-09-19T15:01:16;4.68;;;1.38;;
5585;SDS011;2815;54.094;12.112;2023-09-19T15:03:44;7.13;;;2.00;;
5585;SDS011;2815;54.094;12.112;2023-09-19T15:06:21;6.25;;;1.67;;
5585;SDS011;2815;54.094;12.112;2023-09-19T15:08:49;7.15;;;1.52;;
5585;SDS011;2815;54.094;12.112;2023-09-19T15:11:17;5.75;;;1.30;;
5585;SDS011;2815;54.094;12.112;2023-09-19T15:13:47;5.97;;;1.90;;
5585;SDS011;2815;54.094;12.112;2023-09-19T15:16:17;6.28;;;1.38;;
5585;SDS011;2815;54.094;12.112;2023-09-19T15:18:46;5.53;;;1.45;;
5585;SDS011;2815;54.094;12.112;2023-09-19T15:21:15;3.75;;;1.35;;
5585;SDS011;2815;54.094;12.112;2023-09-19T15:23:43;7.97;;;1.85;;
5585;SDS011;2815;54.094;12.112;2023-09-19T15:26:13;7.90;;;1.50;;
5585;SDS011;2815;54.094;12.112;2023-09-19T15:28:44;9.20;;;1.53;;
5585;SDS011;2815;54.094;12.112;2023-09-19T15:31:12;5.13;;;1.50;;
5585;SDS011;2815;54.094;12.112;2023-09-19T15:33:42;4.45;;;1.70;;
5585;SDS011;2815;54.094;12.112;2023-09-19T15:36:10;6.35;;;1.60;;
5585;SDS011;2815;54.094;12.112;2023-09-19T15:38:56;5.18;;;1.60;;
5585;SDS011;2815;54.094;12.112;2023-09-19T15:41:26;4.60;;;1.50;;
5585;SDS011;2815;54.094;12.112;2023-09-19T15:43:55;4.75;;;1.50;;
5585;SDS011;2815;54.094;12.112;2023-09-19T15:46:24;4.13;;;1.40;;
5585;SDS011;2815;54.094;12.112;2023-09-19T15:48:55;4.57;;;1.35;;
5585;SDS011;2815;54.094;12.112;2023-09-19T15:51:23;7.70;;;1.90;;
5585;SDS011;2815;54.094;12.112;2023-09-19T15:53:52;4.70;;;2.20;;
5585;SDS011;2815;54.094;12.112;2023-09-19T15:56:22;5.35;;;1.58;;
5585;SDS011;2815;54.094;12.112;2023-09-19T15:58:51;5.38;;;1.65;;
5585;SDS011;2815;54.094;12.112;2023-09-19T16:01:20;5.55;;;1.35;;